sensor_id;sensor_type;location;lat;lon;timestamp;pressure;altitude;pressure_sealevel;temperature;humidity
64189;BME280;50493;50.970;10.082;2023-05-25T00:00:57;100045.69;;;11.52;51.13
64189;BME280;50493;50.970;10.082;2023-05-25T00:03:22;100043.19;;;11.45;51.07
64189;BME280;50493;50.970;10.082;2023-05-25T00:05:53;100048.47;;;11.42;51.13
64189;BME280;50493;50.970;10.082;2023-05-25T00:08:18;100048.47;;;11.42;50.86
64189;BME280;50493;50.970;10.082;2023-05-25T00:10:43;100046.81;;;11.35;51.08
64189;BME280;50493;50.970;10.082;2023-05-25T00:13:09;100050.31;;;11.34;51.04
64189;BME280;50493;50.970;10.082;2023-05-25T00:15:34;100041.72;;;11.26;51.24
64189;BME280;50493;50.970;10.082;2023-05-25T00:18:00;100040.97;;;11.16;51.18
64189;BME280;50493;50.970;10.082;2023-05-25T00:20:25;100048.00;;;11.14;51.37
64189;BME280;50493;50.970;10.082;2023-05-25T00:22:52;100042.81;;;11.09;51.34
64189;BME280;50493;50.970;10.082;2023-05-25T00:25:20;100045.50;;;11.05;51.41
64189;BME280;50493;50.970;10.082;2023-05-25T00:27:45;100052.44;;;11.07;51.09
64189;BME280;50493;50.970;10.082;2023-05-25T00:30:11;100049.91;;;11.01;51.38
64189;BME280;50493;50.970;10.082;2023-05-25T00:32:37;100045.63;;;10.94;51.40
64189;BME280;50493;50.970;10.082;2023-05-25T00:35:02;100052.56;;;10.95;51.30
64189;BME280;50493;50.970;10.082;2023-05-25T00:37:28;100045.66;;;10.91;51.27
64189;BME280;50493;50.970;10.082;2023-05-25T00:39:55;100048.34;;;10.86;51.33
64189;BME280;50493;50.970;10.082;2023-05-25T00:42:20;100048.41;;;10.78;51.42
64189;BME280;50493;50.970;10.082;2023-05-25T00:44:47;100047.59;;;10.73;51.61
64189;BME280;50493;50.970;10.082;2023-05-25T00:47:12;100052.84;;;10.73;51.34
64189;BME280;50493;50.970;10.082;2023-05-25T00:49:40;100054.63;;;10.71;51.35
64189;BME280;50493;50.970;10.082;2023-05-25T00:52:05;100054.63;;;10.71;51.25
64189;BME280;50493;50.970;10.082;2023-05-25T00:54:30;100058.16;;;10.67;51.30
64189;BME280;50493;50.970;10.082;2023-05-25T00:57:01;100056.50;;;10.60;51.61
64189;BME280;50493;50.970;10.082;2023-05-25T00:59:31;100054.84;;;10.50;51.71
64189;BME280;50493;50.970;10.082;2023-05-25T01:02:02;100045.28;;;10.48;51.70
64189;BME280;50493;50.970;10.082;2023-05-25T01:04:30;100047.97;;;10.42;51.69
64189;BME280;50493;50.970;10.082;2023-05-25T01:06:57;100049.78;;;10.31;51.78
64189;BME280;50493;50.970;10.082;2023-05-25T01:09:25;100051.56;;;10.29;52.07
64189;BME280;50493;50.970;10.082;2023-05-25T01:11:52;100054.19;;;10.27;51.74
64189;BME280;50493;50.970;10.082;2023-05-25T01:14:21;100056.78;;;10.26;51.99
64189;BME280;50493;50.970;10.082;2023-05-25T01:16:49;100055.09;;;10.25;51.63
64189;BME280;50493;50.970;10.082;2023-05-25T01:19:16;100046.47;;;10.17;51.90
64189;BME280;50493;50.970;10.082;2023-05-25T01:21:46;100047.34;;;10.14;51.98
64189;BME280;50493;50.970;10.082;2023-05-25T01:24:19;100048.19;;;10.14;51.65
64189;BME280;50493;50.970;10.082;2023-05-25T01:26:50;100050.84;;;10.11;51.68
64189;BME280;50493;50.970;10.082;2023-05-25T01:29:19;100054.34;;;10.09;51.75
64189;BME280;50493;50.970;10.082;2023-05-25T01:31:46;100059.56;;;10.09;51.63
64189;BME280;50493;50.970;10.082;2023-05-25T01:34:12;100054.44;;;10.00;51.96
64189;BME280;50493;50.970;10.082;2023-05-25T01:36:38;100048.34;;;9.99;51.88
64189;BME280;50493;50.970;10.082;2023-05-25T01:39:05;100053.56;;;9.96;51.84
64189;BME280;50493;50.970;10.082;2023-05-25T01:41:31;100051.00;;;9.93;51.91
64189;BME280;50493;50.970;10.082;2023-05-25T01:43:57;100053.69;;;9.87;51.92
64189;BME280;50493;50.970;10.082;2023-05-25T01:46:26;100053.75;;;9.77;52.01
64189;BME280;50493;50.970;10.082;2023-05-25T01:49:04;100051.13;;;9.77;51.96
64189;BME280;50493;50.970;10.082;2023-05-25T01:51:37;100051.16;;;9.73;51.97
64189;BME280;50493;50.970;10.082;2023-05-25T01:54:08;100053.78;;;9.71;52.09
64189;BME280;50493;50.970;10.082;2023-05-25T01:56:36;100052.06;;;9.67;51.89
64189;BME280;50493;50.970;10.082;2023-05-25T01:59:02;100053.88;;;9.59;52.16
64189;BME280;50493;50.970;10.082;2023-05-25T02:01:29;100053.91;;;9.57;51.83
64189;BME280;50493;50.970;10.082;2023-05-25T02:03:56;100053.00;;;9.57;52.09
64189;BME280;50493;50.970;10.082;2023-05-25T02:06:22;100055.66;;;9.54;52.02
64189;BME280;50493;50.970;10.082;2023-05-25T02:08:47;100049.56;;;9.50;52.09
64189;BME280;50493;50.970;10.082;2023-05-25T02:11:15;100046.16;;;9.45;52.01
64189;BME280;50493;50.970;10.082;2023-05-25T02:13:40;100048.78;;;9.43;52.09
64189;BME280;50493;50.970;10.082;2023-05-25T02:16:06;100050.47;;;9.44;52.22
64189;BME280;50493;50.970;10.082;2023-05-25T02:18:32;100050.53;;;9.38;52.10
64189;BME280;50493;50.970;10.082;2023-05-25T02:20:58;100044.50;;;9.32;52.20
64189;BME280;50493;50.970;10.082;2023-05-25T02:23:24;100042.75;;;9.29;52.11
64189;BME280;50493;50.970;10.082;2023-05-25T02:25:49;100043.63;;;9.28;52.18
64189;BME280;50493;50.970;10.082;2023-05-25T02:28:17;100038.44;;;9.23;52.18
64189;BME280;50493;50.970;10.082;2023-05-25T02:30:43;100040.19;;;9.20;52.25
64189;BME280;50493;50.970;10.082;2023-05-25T02:33:08;100043.69;;;9.16;52.32
64189;BME280;50493;50.970;10.082;2023-05-25T02:35:33;100043.69;;;9.16;52.25
64189;BME280;50493;50.970;10.082;2023-05-25T02:37:59;100043.72;;;9.12;52.26
64189;BME280;50493;50.970;10.082;2023-05-25T02:40:24;100042.88;;;9.06;52.53
64189;BME280;50493;50.970;10.082;2023-05-25T02:42:49;100038.50;;;9.12;52.03
64189;BME280;50493;50.970;10.082;2023-05-25T02:45:16;100039.41;;;9.05;52.00
64189;BME280;50493;50.970;10.082;2023-05-25T02:47:42;100040.28;;;9.01;52.20
64189;BME280;50493;50.970;10.082;2023-05-25T02:50:08;100036.81;;;8.93;52.23
64189;BME280;50493;50.970;10.082;2023-05-25T02:52:33;100035.94;;;8.94;52.24
64189;BME280;50493;50.970;10.082;2023-05-25T02:54:59;100031.59;;;8.93;51.97
64189;BME280;50493;50.970;10.082;2023-05-25T02:57:25;100032.50;;;8.87;52.42
64189;BME280;50493;50.970;10.082;2023-05-25T02:59:51;100037.72;;;8.86;52.16
64189;BME280;50493;50.970;10.082;2023-05-25T03:02:18;100045.56;;;8.84;52.21
64189;BME280;50493;50.970;10.082;2023-05-25T03:04:45;100046.44;;;8.83;52.21
64189;BME280;50493;50.970;10.082;2023-05-25T03:07:10;100049.88;;;8.85;52.07
64189;BME280;50493;50.970;10.082;2023-05-25T03:09:36;100040.34;;;8.83;51.83
64189;BME280;50493;50.970;10.082;2023-05-25T03:12:01;100051.66;;;8.78;51.93
64189;BME280;50493;50.970;10.082;2023-05-25T03:14:27;100056.88;;;8.74;52.11
64189;BME280;50493;50.970;10.082;2023-05-25T03:16:52;100054.28;;;8.66;52.02
64189;BME280;50493;50.970;10.082;2023-05-25T03:19:19;100056.94;;;8.60;52.09
64189;BME280;50493;50.970;10.082;2023-05-25T03:21:45;100056.94;;;8.55;52.30
64189;BME280;50493;50.970;10.082;2023-05-25T03:24:10;100059.56;;;8.51;52.33
64189;BME280;50493;50.970;10.082;2023-05-25T03:26:35;100061.28;;;8.49;52.50
64189;BME280;50493;50.970;10.082;2023-05-25T03:29:01;100062.16;;;8.54;52.00
64189;BME280;50493;50.970;10.082;2023-05-25T03:31:27;100058.66;;;8.59;51.87
64189;BME280;50493;50.970;10.082;2023-05-25T03:33:52;100059.53;;;8.63;51.64
64189;BME280;50493;50.970;10.082;2023-05-25T03:36:19;100064.75;;;8.63;51.51
64189;BME280;50493;50.970;10.082;2023-05-25T03:38:46;100064.72;;;8.69;51.26
64189;BME280;50493;50.970;10.082;2023-05-25T03:41:11;100072.59;;;8.58;51.26
64189;BME280;50493;50.970;10.082;2023-05-25T03:43:37;100073.47;;;8.54;51.49
64189;BME280;50493;50.970;10.082;2023-05-25T03:46:02;100085.63;;;8.57;51.56
64189;BME280;50493;50.970;10.082;2023-05-25T03:48:27;100076.03;;;8.67;51.09
64189;BME280;50493;50.970;10.082;2023-05-25T03:50:53;100078.63;;;8.68;51.19
64189;BME280;50493;50.970;10.082;2023-05-25T03:53:19;100082.09;;;8.69;51.04
64189;BME280;50493;50.970;10.082;2023-05-25T03:55:45;100087.28;;;8.76;50.75
64189;BME280;50493;50.970;10.082;2023-05-25T03:58:10;100089.91;;;8.67;50.71
64189;BME280;50493;50.970;10.082;2023-05-25T04:00:36;100095.13;;;8.67;50.97
64189;BME280;50493;50.970;10.082;2023-05-25T04:03:01;100094.25;;;8.76;50.33
64189;BME280;50493;50.970;10.082;2023-05-25T04:05:27;100089.88;;;8.86;50.24
64189;BME280;50493;50.970;10.082;2023-05-25T04:07:52;100097.69;;;8.89;49.90
64189;BME280;50493;50.970;10.082;2023-05-25T04:10:20;100091.59;;;8.90;49.88
64189;BME280;50493;50.970;10.082;2023-05-25T04:12:45;100098.56;;;8.83;50.12
64189;BME280;50493;50.970;10.082;2023-05-25T04:15:10;100091.44;;;9.32;48.65
64189;BME280;50493;50.970;10.082;2023-05-25T04:17:38;100094.91;;;9.32;48.64
64189;BME280;50493;50.970;10.082;2023-05-25T04:20:04;100100.19;;;9.20;48.78
64189;BME280;50493;50.970;10.082;2023-05-25T04:22:30;100100.94;;;9.46;48.07
64189;BME280;50493;50.970;10.082;2023-05-25T04:24:57;100099.97;;;9.61;47.49
64189;BME280;50493;50.970;10.082;2023-05-25T04:27:24;100103.63;;;9.34;48.15
64189;BME280;50493;50.970;10.082;2023-05-25T04:29:50;100107.19;;;9.13;48.69
64189;BME280;50493;50.970;10.082;2023-05-25T04:32:18;100095.81;;;9.28;48.22
64189;BME280;50493;50.970;10.082;2023-05-25T04:34:43;100104.50;;;9.27;48.23
64189;BME280;50493;50.970;10.082;2023-05-25T04:37:11;100108.88;;;9.20;48.47
64189;BME280;50493;50.970;10.082;2023-05-25T04:39:36;100113.25;;;9.20;48.39
64189;BME280;50493;50.970;10.082;2023-05-25T04:42:01;100123.72;;;9.10;48.50
64189;BME280;50493;50.970;10.082;2023-05-25T04:44:30;100125.41;;;9.21;48.23
64189;BME280;50493;50.970;10.082;2023-05-25T04:46:55;100116.72;;;9.22;48.31
64189;BME280;50493;50.970;10.082;2023-05-25T04:49:21;100120.22;;;9.15;48.29
64189;BME280;50493;50.970;10.082;2023-05-25T04:51:46;100123.66;;;9.23;48.11
64189;BME280;50493;50.970;10.082;2023-05-25T04:54:12;100123.75;;;9.04;48.84
64189;BME280;50493;50.970;10.082;2023-05-25T04:56:37;100115.03;;;9.11;48.49
64189;BME280;50493;50.970;10.082;2023-05-25T04:59:02;100119.34;;;9.22;48.10
64189;BME280;50493;50.970;10.082;2023-05-25T05:01:29;100131.31;;;9.57;47.30
64189;BME280;50493;50.970;10.082;2023-05-25T05:03:55;100129.34;;;9.93;46.24
64189;BME280;50493;50.970;10.082;2023-05-25T05:06:20;100136.22;;;10.08;46.37
64189;BME280;50493;50.970;10.082;2023-05-25T05:08:46;100134.31;;;10.25;45.11
64189;BME280;50493;50.970;10.082;2023-05-25T05:11:12;100138.81;;;10.09;45.65
64189;BME280;50493;50.970;10.082;2023-05-25T05:13:37;100146.59;;;10.16;45.56
64189;BME280;50493;50.970;10.082;2023-05-25T05:16:03;100145.53;;;10.44;46.13
64189;BME280;50493;50.970;10.082;2023-05-25T05:18:30;100145.53;;;10.44;47.73
64189;BME280;50493;50.970;10.082;2023-05-25T05:20:56;100161.06;;;10.58;46.35
64189;BME280;50493;50.970;10.082;2023-05-25T05:23:21;100162.81;;;10.58;46.12
64189;BME280;50493;50.970;10.082;2023-05-25T05:25:46;100164.81;;;11.20;44.54
64189;BME280;50493;50.970;10.082;2023-05-25T05:28:12;100161.13;;;11.35;47.86
64189;BME280;50493;50.970;10.082;2023-05-25T05:30:37;100152.94;;;11.64;46.35
64189;BME280;50493;50.970;10.082;2023-05-25T05:33:03;100150.72;;;11.95;41.91
64189;BME280;50493;50.970;10.082;2023-05-25T05:35:30;100153.84;;;12.71;39.93
64189;BME280;50493;50.970;10.082;2023-05-25T05:37:55;100154.75;;;13.99;42.47
64189;BME280;50493;50.970;10.082;2023-05-25T05:40:21;100160.25;;;13.46;38.46
64189;BME280;50493;50.970;10.082;2023-05-25T05:42:46;100161.88;;;14.32;39.80
64189;BME280;50493;50.970;10.082;2023-05-25T05:45:11;100161.94;;;15.88;38.69
64189;BME280;50493;50.970;10.082;2023-05-25T05:47:37;100153.88;;;16.47;36.95
64189;BME280;50493;50.970;10.082;2023-05-25T05:50:03;100167.81;;;15.08;39.55
64189;BME280;50493;50.970;10.082;2023-05-25T05:52:30;100162.91;;;13.86;38.21
64189;BME280;50493;50.970;10.082;2023-05-25T05:54:55;100167.19;;;14.98;36.51
64189;BME280;50493;50.970;10.082;2023-05-25T05:57:20;100161.75;;;15.35;34.65
64189;BME280;50493;50.970;10.082;2023-05-25T05:59:46;100157.84;;;16.61;38.06
64189;BME280;50493;50.970;10.082;2023-05-25T06:02:11;100155.94;;;16.39;37.71
64189;BME280;50493;50.970;10.082;2023-05-25T06:04:37;100154.81;;;16.19;33.14
64189;BME280;50493;50.970;10.082;2023-05-25T06:07:02;100163.00;;;17.14;32.17
64189;BME280;50493;50.970;10.082;2023-05-25T06:09:29;100168.78;;;17.00;31.84
64189;BME280;50493;50.970;10.082;2023-05-25T06:11:54;100171.63;;;17.19;38.19
64189;BME280;50493;50.970;10.082;2023-05-25T06:14:20;100166.88;;;17.99;36.60
64189;BME280;50493;50.970;10.082;2023-05-25T06:16:45;100161.66;;;18.83;35.33
64189;BME280;50493;50.970;10.082;2023-05-25T06:19:10;100159.03;;;19.61;31.51
64189;BME280;50493;50.970;10.082;2023-05-25T06:21:36;100170.44;;;19.04;32.03
64189;BME280;50493;50.970;10.082;2023-05-25T06:24:01;100162.88;;;19.15;35.58
64189;BME280;50493;50.970;10.082;2023-05-25T06:26:28;100173.81;;;19.85;30.17
64189;BME280;50493;50.970;10.082;2023-05-25T06:28:55;100169.25;;;18.70;32.57
64189;BME280;50493;50.970;10.082;2023-05-25T06:31:21;100158.69;;;18.91;31.69
64189;BME280;50493;50.970;10.082;2023-05-25T06:33:47;100167.56;;;18.47;30.72
64189;BME280;50493;50.970;10.082;2023-05-25T06:36:12;100160.50;;;20.24;34.15
64189;BME280;50493;50.970;10.082;2023-05-25T06:38:39;100157.16;;;20.55;27.63
64189;BME280;50493;50.970;10.082;2023-05-25T06:41:04;100160.31;;;21.14;27.19
64189;BME280;50493;50.970;10.082;2023-05-25T06:43:32;100162.84;;;21.00;32.16
64189;BME280;50493;50.970;10.082;2023-05-25T06:45:58;100157.09;;;21.57;28.85
64189;BME280;50493;50.970;10.082;2023-05-25T06:48:23;100154.69;;;21.52;26.88
64189;BME280;50493;50.970;10.082;2023-05-25T06:50:48;100169.13;;;22.12;31.16
64189;BME280;50493;50.970;10.082;2023-05-25T06:53:14;100167.75;;;22.05;31.51
64189;BME280;50493;50.970;10.082;2023-05-25T06:55:40;100172.47;;;23.21;30.56
64189;BME280;50493;50.970;10.082;2023-05-25T06:58:05;100162.97;;;21.80;25.59
64189;BME280;50493;50.970;10.082;2023-05-25T07:00:32;100158.41;;;21.16;27.70
64189;BME280;50493;50.970;10.082;2023-05-25T07:02:57;100163.94;;;20.78;26.99
64189;BME280;50493;50.970;10.082;2023-05-25T07:05:22;100163.63;;;22.62;30.61
64189;BME280;50493;50.970;10.082;2023-05-25T07:07:48;100161.69;;;22.64;26.55
64189;BME280;50493;50.970;10.082;2023-05-25T07:10:13;100152.91;;;22.01;25.54
64189;BME280;50493;50.970;10.082;2023-05-25T07:12:39;100151.81;;;21.73;28.58
64189;BME280;50493;50.970;10.082;2023-05-25T07:15:05;100148.16;;;21.26;27.05
64189;BME280;50493;50.970;10.082;2023-05-25T07:17:32;100150.44;;;22.28;34.04
64189;BME280;50493;50.970;10.082;2023-05-25T07:19:58;100153.72;;;22.17;32.85
64189;BME280;50493;50.970;10.082;2023-05-25T07:22:24;100156.94;;;21.11;33.29
64189;BME280;50493;50.970;10.082;2023-05-25T07:24:49;100154.91;;;19.36;32.95
64189;BME280;50493;50.970;10.082;2023-05-25T07:27:15;100148.69;;;21.33;35.40
64189;BME280;50493;50.970;10.082;2023-05-25T07:29:40;100158.34;;;19.38;37.54
64189;BME280;50493;50.970;10.082;2023-05-25T07:32:06;100163.38;;;18.20;41.95
64189;BME280;50493;50.970;10.082;2023-05-25T07:34:33;100149.44;;;19.39;39.62
64189;BME280;50493;50.970;10.082;2023-05-25T07:36:59;100153.03;;;17.92;42.29
64189;BME280;50493;50.970;10.082;2023-05-25T07:39:24;100150.09;;;18.00;43.62
64189;BME280;50493;50.970;10.082;2023-05-25T07:41:50;100157.56;;;19.15;41.09
64189;BME280;50493;50.970;10.082;2023-05-25T07:44:15;100150.97;;;19.24;38.94
64189;BME280;50493;50.970;10.082;2023-05-25T07:46:41;100148.63;;;20.31;31.55
64189;BME280;50493;50.970;10.082;2023-05-25T07:49:06;100145.81;;;20.51;29.41
64189;BME280;50493;50.970;10.082;2023-05-25T07:51:37;100157.16;;;20.01;29.79
64189;BME280;50493;50.970;10.082;2023-05-25T07:54:02;100153.66;;;20.88;34.25
64189;BME280;50493;50.970;10.082;2023-05-25T07:56:28;100156.59;;;22.75;29.02
64189;BME280;50493;50.970;10.082;2023-05-25T07:58:53;100166.28;;;21.51;33.58
64189;BME280;50493;50.970;10.082;2023-05-25T08:01:18;100168.47;;;18.89;37.86
64189;BME280;50493;50.970;10.082;2023-05-25T08:03:44;100160.00;;;18.60;32.35
64189;BME280;50493;50.970;10.082;2023-05-25T08:06:09;100175.47;;;18.26;39.37
64189;BME280;50493;50.970;10.082;2023-05-25T08:08:36;100166.28;;;19.17;32.26
64189;BME280;50493;50.970;10.082;2023-05-25T08:11:02;100172.31;;;18.81;33.65
64189;BME280;50493;50.970;10.082;2023-05-25T08:13:27;100160.91;;;19.19;36.98
64189;BME280;50493;50.970;10.082;2023-05-25T08:15:53;100171.66;;;18.76;35.16
64189;BME280;50493;50.970;10.082;2023-05-25T08:18:18;100173.63;;;18.71;33.08
64189;BME280;50493;50.970;10.082;2023-05-25T08:20:44;100160.44;;;20.06;33.50
64189;BME280;50493;50.970;10.082;2023-05-25T08:23:09;100158.47;;;18.95;32.28
64189;BME280;50493;50.970;10.082;2023-05-25T08:25:36;100153.75;;;20.16;31.19
64189;BME280;50493;50.970;10.082;2023-05-25T08:28:01;100160.69;;;19.63;31.12
64189;BME280;50493;50.970;10.082;2023-05-25T08:30:27;100169.28;;;18.48;37.61
64189;BME280;50493;50.970;10.082;2023-05-25T08:32:53;100167.94;;;18.37;36.60
64189;BME280;50493;50.970;10.082;2023-05-25T08:35:18;100171.59;;;16.44;43.35
64189;BME280;50493;50.970;10.082;2023-05-25T08:37:44;100163.63;;;18.98;35.85
64189;BME280;50493;50.970;10.082;2023-05-25T08:40:14;100165.97;;;20.38;32.60
64189;BME280;50493;50.970;10.082;2023-05-25T08:42:42;100168.97;;;19.57;37.69
64189;BME280;50493;50.970;10.082;2023-05-25T08:45:08;100171.63;;;17.91;40.61
64189;BME280;50493;50.970;10.082;2023-05-25T08:47:39;100174.47;;;18.08;42.27
64189;BME280;50493;50.970;10.082;2023-05-25T08:50:07;100158.41;;;20.11;36.89
64189;BME280;50493;50.970;10.082;2023-05-25T08:52:33;100170.59;;;18.80;38.67
64189;BME280;50493;50.970;10.082;2023-05-25T08:55:03;100161.78;;;20.15;32.38
64189;BME280;50493;50.970;10.082;2023-05-25T08:57:33;100161.59;;;21.88;34.48
64189;BME280;50493;50.970;10.082;2023-05-25T09:00:04;100170.91;;;22.28;28.97
64189;BME280;50493;50.970;10.082;2023-05-25T09:02:38;100167.53;;;21.62;32.83
64189;BME280;50493;50.970;10.082;2023-05-25T09:05:04;100164.22;;;22.96;31.96
64189;BME280;50493;50.970;10.082;2023-05-25T09:07:30;100165.22;;;23.09;29.46
64189;BME280;50493;50.970;10.082;2023-05-25T09:09:56;100168.78;;;22.79;29.90
64189;BME280;50493;50.970;10.082;2023-05-25T09:12:22;100169.09;;;22.59;28.87
64189;BME280;50493;50.970;10.082;2023-05-25T09:14:48;100174.63;;;19.29;34.84
64189;BME280;50493;50.970;10.082;2023-05-25T09:17:16;100164.75;;;19.32;36.21
64189;BME280;50493;50.970;10.082;2023-05-25T09:19:42;100183.41;;;17.34;40.60
64189;BME280;50493;50.970;10.082;2023-05-25T09:22:08;100176.50;;;18.44;36.38
64189;BME280;50493;50.970;10.082;2023-05-25T09:24:37;100184.56;;;19.44;36.57
64189;BME280;50493;50.970;10.082;2023-05-25T09:27:05;100180.13;;;19.64;34.29
64189;BME280;50493;50.970;10.082;2023-05-25T09:29:31;100178.06;;;20.26;34.68
64189;BME280;50493;50.970;10.082;2023-05-25T09:31:59;100165.78;;;21.11;33.72
64189;BME280;50493;50.970;10.082;2023-05-25T09:34:29;100165.09;;;22.05;30.58
64189;BME280;50493;50.970;10.082;2023-05-25T09:36:55;100169.63;;;22.03;32.06
64189;BME280;50493;50.970;10.082;2023-05-25T09:39:21;100168.78;;;21.70;32.78
64189;BME280;50493;50.970;10.082;2023-05-25T09:41:46;100171.22;;;21.26;33.31
64189;BME280;50493;50.970;10.082;2023-05-25T09:44:11;100174.38;;;21.66;32.97
64189;BME280;50493;50.970;10.082;2023-05-25T09:46:37;100170.59;;;21.70;31.66
64189;BME280;50493;50.970;10.082;2023-05-25T09:49:05;100168.22;;;22.88;30.13
64189;BME280;50493;50.970;10.082;2023-05-25T09:51:33;100176.78;;;22.33;30.16
64189;BME280;50493;50.970;10.082;2023-05-25T09:53:59;100174.75;;;21.42;32.08
64189;BME280;50493;50.970;10.082;2023-05-25T09:56:25;100178.91;;;21.64;32.89
64189;BME280;50493;50.970;10.082;2023-05-25T09:58:51;100189.28;;;20.14;33.31
64189;BME280;50493;50.970;10.082;2023-05-25T10:01:17;100185.94;;;20.28;34.61
64189;BME280;50493;50.970;10.082;2023-05-25T10:03:44;100188.44;;;19.16;36.98
64189;BME280;50493;50.970;10.082;2023-05-25T10:06:11;100186.66;;;20.66;33.19
64189;BME280;50493;50.970;10.082;2023-05-25T10:08:38;100183.53;;;21.44;32.75
64189;BME280;50493;50.970;10.082;2023-05-25T10:11:04;100182.78;;;22.97;30.40
64189;BME280;50493;50.970;10.082;2023-05-25T10:13:31;100184.00;;;21.35;33.21
64189;BME280;50493;50.970;10.082;2023-05-25T10:15:58;100180.09;;;22.68;30.85
64189;BME280;50493;50.970;10.082;2023-05-25T10:18:25;100180.09;;;20.21;33.94
64189;BME280;50493;50.970;10.082;2023-05-25T10:20:59;100185.50;;;18.40;38.79
64189;BME280;50493;50.970;10.082;2023-05-25T10:23:27;100186.88;;;19.52;36.32
64189;BME280;50493;50.970;10.082;2023-05-25T10:25:59;100197.66;;;19.47;36.00
64189;BME280;50493;50.970;10.082;2023-05-25T10:28:28;100178.75;;;20.82;34.79
64189;BME280;50493;50.970;10.082;2023-05-25T10:30:55;100183.84;;;21.87;33.80
64189;BME280;50493;50.970;10.082;2023-05-25T10:33:21;100174.91;;;20.90;33.49
64189;BME280;50493;50.970;10.082;2023-05-25T10:35:48;100176.50;;;22.07;34.04
64189;BME280;50493;50.970;10.082;2023-05-25T10:38:14;100175.03;;;22.33;31.69
64189;BME280;50493;50.970;10.082;2023-05-25T10:40:40;100170.84;;;21.97;32.58
64189;BME280;50493;50.970;10.082;2023-05-25T10:43:06;100169.47;;;22.06;32.74
64189;BME280;50493;50.970;10.082;2023-05-25T10:45:33;100162.09;;;21.14;34.05
64189;BME280;50493;50.970;10.082;2023-05-25T10:47:59;100155.56;;;20.86;34.97
64189;BME280;50493;50.970;10.082;2023-05-25T10:50:25;100162.38;;;20.39;35.73
64189;BME280;50493;50.970;10.082;2023-05-25T10:52:58;100163.81;;;21.15;34.31
64189;BME280;50493;50.970;10.082;2023-05-25T10:55:25;100163.94;;;20.96;34.72
64189;BME280;50493;50.970;10.082;2023-05-25T10:58:07;100164.31;;;22.03;32.32
64189;BME280;50493;50.970;10.082;2023-05-25T11:00:33;100161.00;;;22.46;32.56
64189;BME280;50493;50.970;10.082;2023-05-25T11:02:59;100156.09;;;22.68;32.13
64189;BME280;50493;50.970;10.082;2023-05-25T11:05:32;100158.91;;;23.39;31.41
64189;BME280;50493;50.970;10.082;2023-05-25T11:07:58;100155.06;;;22.71;32.61
64189;BME280;50493;50.970;10.082;2023-05-25T11:10:50;100154.59;;;22.34;33.41
64189;BME280;50493;50.970;10.082;2023-05-25T11:13:32;100155.91;;;22.71;32.69
64189;BME280;50493;50.970;10.082;2023-05-25T11:16:07;100171.34;;;22.81;32.93
64189;BME280;50493;50.970;10.082;2023-05-25T11:18:36;100171.66;;;22.30;32.96
64189;BME280;50493;50.970;10.082;2023-05-25T11:21:10;100161.78;;;22.32;32.04
64189;BME280;50493;50.970;10.082;2023-05-25T11:23:38;100163.28;;;22.05;32.88
64189;BME280;50493;50.970;10.082;2023-05-25T11:26:04;100166.59;;;20.96;35.87
64189;BME280;50493;50.970;10.082;2023-05-25T11:28:32;100162.69;;;20.68;35.32
64189;BME280;50493;50.970;10.082;2023-05-25T11:30:57;100169.94;;;18.75;40.91
64189;BME280;50493;50.970;10.082;2023-05-25T11:33:23;100153.84;;;20.85;36.49
64189;BME280;50493;50.970;10.082;2023-05-25T11:35:49;100149.03;;;22.07;35.77
64189;BME280;50493;50.970;10.082;2023-05-25T11:38:15;100143.25;;;23.76;30.55
64189;BME280;50493;50.970;10.082;2023-05-25T11:40:40;100139.22;;;24.64;30.68
64189;BME280;50493;50.970;10.082;2023-05-25T11:43:07;100135.28;;;24.16;31.55
64189;BME280;50493;50.970;10.082;2023-05-25T11:45:33;100134.81;;;23.97;32.32
64189;BME280;50493;50.970;10.082;2023-05-25T11:48:02;100138.19;;;23.57;32.79
64189;BME280;50493;50.970;10.082;2023-05-25T11:50:28;100139.47;;;23.37;29.30
64189;BME280;50493;50.970;10.082;2023-05-25T11:52:53;100127.31;;;23.60;32.81
64189;BME280;50493;50.970;10.082;2023-05-25T11:55:19;100129.69;;;24.06;31.65
64189;BME280;50493;50.970;10.082;2023-05-25T11:57:45;100132.91;;;23.43;33.79
64189;BME280;50493;50.970;10.082;2023-05-25T12:00:12;100136.06;;;23.20;35.41
64189;BME280;50493;50.970;10.082;2023-05-25T12:02:40;100131.41;;;22.95;34.17
64189;BME280;50493;50.970;10.082;2023-05-25T12:05:08;100133.59;;;23.32;30.75
64189;BME280;50493;50.970;10.082;2023-05-25T12:07:41;100137.94;;;23.47;34.32
64189;BME280;50493;50.970;10.082;2023-05-25T12:10:08;100128.59;;;23.96;31.63
64189;BME280;50493;50.970;10.082;2023-05-25T12:12:40;100133.75;;;24.12;33.21
64189;BME280;50493;50.970;10.082;2023-05-25T12:15:07;100132.19;;;23.95;30.77
64189;BME280;50493;50.970;10.082;2023-05-25T12:17:33;100135.16;;;22.91;30.19
64189;BME280;50493;50.970;10.082;2023-05-25T12:20:00;100127.66;;;21.92;32.68
64189;BME280;50493;50.970;10.082;2023-05-25T12:22:26;100125.28;;;22.34;37.96
64189;BME280;50493;50.970;10.082;2023-05-25T12:24:51;100128.63;;;22.97;36.19
64189;BME280;50493;50.970;10.082;2023-05-25T12:27:18;100121.41;;;23.28;36.65
64189;BME280;50493;50.970;10.082;2023-05-25T12:29:47;100125.09;;;23.39;35.64
64189;BME280;50493;50.970;10.082;2023-05-25T12:32:12;100116.38;;;23.79;33.93
64189;BME280;50493;50.970;10.082;2023-05-25T12:34:38;100116.84;;;23.71;35.26
64189;BME280;50493;50.970;10.082;2023-05-25T12:37:16;100105.56;;;24.21;33.93
64189;BME280;50493;50.970;10.082;2023-05-25T12:39:43;100102.34;;;24.43;33.58